createdAt,value
2023-04-15T00:00:58.590Z,100507.47
2023-04-15T00:03:25.606Z,100506.28
2023-04-15T00:05:52.257Z,100511.16
2023-04-15T00:08:19.457Z,100491.06
2023-04-15T00:10:46.815Z,100495.75
2023-04-15T00:13:13.416Z,100521.13
2023-04-15T00:15:39.924Z,100494.84
2023-04-15T00:18:08.231Z,100510.91
2023-04-15T00:20:35.483Z,100516.63
2023-04-15T00:23:04.010Z,100492.91
2023-04-15T00:25:30.885Z,100514.59
2023-04-15T00:27:57.376Z,100505.78
2023-04-15T00:30:23.986Z,100506.72
2023-04-15T00:32:50.849Z,100507.59
2023-04-15T00:35:17.479Z,100500.41
2023-04-15T00:37:46.042Z,100489.75
2023-04-15T00:40:13.695Z,100513.13
2023-04-15T00:42:40.322Z,100515.50
2023-04-15T00:45:08.737Z,100501.50
2023-04-15T00:47:37.607Z,100506.78
2023-04-15T00:50:04.994Z,100489.09
2023-04-15T00:52:31.991Z,100504.38
2023-04-15T00:54:58.968Z,100509.34
2023-04-15T00:57:27.157Z,100502.53
2023-04-15T00:59:54.765Z,100519.91
2023-04-15T01:02:21.891Z,100509.84
2023-04-15T01:04:48.825Z,100504.13
2023-04-15T01:07:15.304Z,100510.28
2023-04-15T01:09:42.324Z,100502.53
2023-04-15T01:12:11.987Z,100517.75
2023-04-15T01:14:38.680Z,100508.78
2023-04-15T01:17:05.130Z,100508.34
2023-04-15T01:19:31.686Z,100494.06
2023-04-15T01:21:58.212Z,100499.78
2023-04-15T01:24:28.084Z,100504.56
2023-04-15T01:26:54.577Z,100493.78
2023-04-15T01:29:21.364Z,100499.06
2023-04-15T01:31:55.961Z,100506.63
2023-04-15T01:34:22.528Z,100515.06
2023-04-15T01:36:51.913Z,100516.72
2023-04-15T01:39:18.355Z,100503.66
2023-04-15T01:41:44.853Z,100498.72
2023-04-15T01:44:11.629Z,100516.31
2023-04-15T01:46:40.732Z,100523.72
2023-04-15T01:49:07.667Z,100456.97
2023-04-15T01:51:34.252Z,100495.97
2023-04-15T01:54:00.689Z,100502.25
2023-04-15T01:56:27.126Z,100522.03
2023-04-15T01:58:53.653Z,100506.63
2023-04-15T02:01:20.754Z,100514.53
2023-04-15T02:03:48.047Z,100514.09
2023-04-15T02:06:14.864Z,100516.13
2023-04-15T02:08:41.339Z,100503.06
2023-04-15T02:11:08.371Z,100523.63
2023-04-15T02:13:34.978Z,100520.38
2023-04-15T02:16:01.436Z,100518.63
2023-04-15T02:18:27.842Z,100526.41
2023-04-15T02:20:54.390Z,100528.75
2023-04-15T02:23:20.822Z,100531.88
2023-04-15T02:25:53.432Z,100532.31
2023-04-15T02:28:21.529Z,100522.50
2023-04-15T02:30:52.471Z,100531.94
2023-04-15T02:33:19.288Z,100524.44
2023-04-15T02:35:45.834Z,100533.44
2023-04-15T02:38:14.167Z,100538.78
2023-04-15T02:40:40.918Z,100544.25
2023-04-15T02:43:07.695Z,100534.16
2023-04-15T02:45:34.368Z,100539.50
2023-04-15T02:48:06.158Z,100554.25
2023-04-15T02:50:33.022Z,100548.22
2023-04-15T02:53:01.260Z,100553.28
2023-04-15T02:55:28.255Z,100535.16
2023-04-15T02:57:54.759Z,100540.59
2023-04-15T03:00:21.696Z,100551.53
2023-04-15T03:02:49.897Z,100542.81
2023-04-15T03:05:16.601Z,100545.13
2023-04-15T03:07:43.054Z,100556.44
2023-04-15T03:10:10.544Z,100560.81
2023-04-15T03:12:36.987Z,100564.66
2023-04-15T03:15:03.776Z,100545.81
2023-04-15T03:17:30.382Z,100558.34
2023-04-15T03:19:56.841Z,100566.53
2023-04-15T03:22:23.284Z,100574.59
2023-04-15T03:24:49.867Z,100556.69
2023-04-15T03:27:16.322Z,100562.03
2023-04-15T03:29:42.987Z,100554.66
2023-04-15T03:32:09.397Z,100548.66
2023-04-15T03:34:36.059Z,100557.81
2023-04-15T03:37:02.494Z,100554.09
2023-04-15T03:39:28.950Z,100546.19
2023-04-15T03:41:56.399Z,100549.88
2023-04-15T03:44:22.847Z,100550.97
2023-04-15T03:46:49.414Z,100561.63
2023-04-15T03:49:16.307Z,100551.78
2023-04-15T03:51:42.798Z,100555.19
2023-04-15T03:54:09.258Z,100566.91
2023-04-15T03:56:35.908Z,100548.34
2023-04-15T03:59:02.643Z,100536.06
2023-04-15T04:01:29.451Z,100542.09
2023-04-15T04:03:56.086Z,100571.28
2023-04-15T04:06:22.789Z,100555.59
2023-04-15T04:08:49.263Z,100569.94
2023-04-15T04:11:16.276Z,100572.25
2023-04-15T04:13:42.716Z,100543.84
2023-04-15T04:16:09.253Z,100582.34
2023-04-15T04:18:36.068Z,100564.31
2023-04-15T04:21:02.718Z,100565.44
2023-04-15T04:23:29.257Z,100535.25
2023-04-15T04:25:55.765Z,100568.28
2023-04-15T04:28:22.343Z,100562.19
2023-04-15T04:30:48.924Z,100539.63
2023-04-15T04:33:15.398Z,100557.25
2023-04-15T04:35:42.028Z,100567.88
2023-04-15T04:38:08.674Z,100562.84
2023-04-15T04:40:35.260Z,100569.94
2023-04-15T04:43:01.790Z,100555.31
2023-04-15T04:45:28.371Z,100571.03
2023-04-15T04:47:55.734Z,100590.28
2023-04-15T04:50:22.553Z,100580.44
2023-04-15T04:52:49.111Z,100565.59
2023-04-15T04:55:15.967Z,100605.59
2023-04-15T04:57:42.512Z,100603.00
2023-04-15T05:00:09.793Z,100577.44
2023-04-15T05:02:36.806Z,100613.22
2023-04-15T05:05:03.598Z,100616.78
2023-04-15T05:07:30.029Z,100618.28
2023-04-15T05:09:56.674Z,100611.31
2023-04-15T05:12:23.458Z,100618.94
2023-04-15T05:14:50.019Z,100591.50
2023-04-15T05:17:16.520Z,100625.81
2023-04-15T05:19:42.962Z,100575.94
2023-04-15T05:22:09.591Z,100633.31
2023-04-15T05:24:36.453Z,100613.50
2023-04-15T05:27:03.006Z,100624.72
2023-04-15T05:29:29.580Z,100644.91
2023-04-15T05:31:56.742Z,100606.13
2023-04-15T05:34:23.262Z,100606.94
2023-04-15T05:36:49.729Z,100659.22
2023-04-15T05:39:16.179Z,100633.84
2023-04-15T05:41:42.671Z,100659.22
2023-04-15T05:44:09.276Z,100622.06
2023-04-15T05:46:35.909Z,100654.97
2023-04-15T05:49:02.495Z,100640.47
2023-04-15T05:51:29.672Z,100617.81
2023-04-15T05:53:56.379Z,100629.16
2023-04-15T05:56:22.924Z,100639.34
2023-04-15T05:58:53.820Z,100651.75
2023-04-15T06:01:20.721Z,100625.41
2023-04-15T06:03:47.352Z,100643.97
2023-04-15T06:06:14.378Z,100671.53
2023-04-15T06:08:41.108Z,100649.44
2023-04-15T06:11:07.562Z,100653.66
2023-04-15T06:13:35.150Z,100664.56
2023-04-15T06:16:01.844Z,100660.31
2023-04-15T06:18:28.304Z,100683.78
2023-04-15T06:20:54.847Z,100667.81
2023-04-15T06:23:21.467Z,100693.59
2023-04-15T06:25:48.173Z,100685.06
2023-04-15T06:28:14.636Z,100671.53
2023-04-15T06:30:41.149Z,100663.31
2023-04-15T06:33:07.771Z,100676.00
2023-04-15T06:35:34.376Z,100692.66
2023-04-15T06:38:00.939Z,100679.72
2023-04-15T06:40:27.845Z,100697.16
2023-04-15T06:42:55.639Z,100717.94
2023-04-15T06:45:22.358Z,100696.56
2023-04-15T06:47:48.869Z,100682.31
2023-04-15T06:50:15.390Z,100706.34
2023-04-15T06:52:42.368Z,100703.81
2023-04-15T06:55:08.954Z,100693.41
2023-04-15T06:57:36.042Z,100674.13
2023-04-15T07:00:05.742Z,100669.97
2023-04-15T07:02:32.455Z,100655.00
2023-04-15T07:04:59.262Z,100702.59
2023-04-15T07:07:26.450Z,100682.94
2023-04-15T07:09:53.836Z,100656.31
2023-04-15T07:12:20.977Z,100595.44
2023-04-15T07:14:47.779Z,100624.31
2023-04-15T07:17:36.113Z,100551.72
2023-04-15T07:20:04.708Z,100631.56
2023-04-15T07:22:33.912Z,100630.03
2023-04-15T07:25:01.168Z,100681.22
2023-04-15T07:27:27.803Z,100695.16
2023-04-15T07:30:00.747Z,100702.88
2023-04-15T07:34:10.496Z,100662.75
2023-04-15T07:35:57.303Z,100661.81
2023-04-15T07:38:26.878Z,100661.69
2023-04-15T07:40:56.776Z,100635.22
2023-04-15T07:44:22.631Z,100643.88
2023-04-15T07:46:50.459Z,100710.38
2023-04-15T07:49:19.352Z,100647.78
2023-04-15T07:51:46.008Z,100702.91
2023-04-15T07:58:10.746Z,100723.66
2023-04-15T08:00:38.572Z,100672.94
2023-04-15T08:14:50.986Z,100741.00
2023-04-15T08:21:34.152Z,100655.41
2023-04-15T08:24:01.731Z,100673.38
2023-04-15T08:26:28.648Z,100710.13
2023-04-15T08:29:30.610Z,100743.94
2023-04-15T08:31:57.482Z,100666.69
2023-04-15T08:38:09.635Z,100741.66
2023-04-15T08:40:43.253Z,100750.63
2023-04-15T08:43:19.265Z,100739.81
2023-04-15T08:45:46.742Z,100758.47
2023-04-15T08:48:16.892Z,100751.25
2023-04-15T08:50:44.136Z,100713.38
2023-04-15T08:53:15.617Z,100748.84
2023-04-15T08:55:46.847Z,100736.56
2023-04-15T08:58:14.408Z,100732.97
2023-04-15T09:00:42.153Z,100758.13
2023-04-15T09:03:09.724Z,100762.38
2023-04-15T09:05:37.511Z,100758.78
2023-04-15T09:08:05.489Z,100744.59
2023-04-15T09:10:33.826Z,100772.50
2023-04-15T09:13:02.063Z,100754.84
2023-04-15T09:15:29.877Z,100756.50
2023-04-15T09:17:57.169Z,100771.88
2023-04-15T09:20:23.877Z,100756.03
2023-04-15T09:22:51.967Z,100779.91
2023-04-15T09:25:24.857Z,100755.19
2023-04-15T09:27:53.685Z,100784.63
2023-04-15T09:30:20.659Z,100786.75
2023-04-15T09:32:58.700Z,100775.13
2023-04-15T09:35:27.553Z,100782.13
2023-04-15T09:38:02.330Z,100788.50
2023-04-15T09:40:33.668Z,100794.41
2023-04-15T09:43:02.067Z,100795.72
2023-04-15T09:45:29.862Z,100800.44
2023-04-15T09:50:22.096Z,100793.91
2023-04-15T09:52:48.689Z,100802.91
2023-04-15T09:55:16.058Z,100794.09
2023-04-15T09:57:44.386Z,100794.41
2023-04-15T10:00:11.510Z,100803.25
2023-04-15T10:05:03.862Z,100795.84
2023-04-15T10:07:30.844Z,100796.66
2023-04-15T10:09:59.799Z,100783.75
2023-04-15T10:12:27.260Z,100797.59
2023-04-15T10:14:58.452Z,100807.41
2023-04-15T10:19:55.683Z,100802.81
2023-04-15T10:22:28.168Z,100801.19
2023-04-15T10:24:56.367Z,100810.47
2023-04-15T10:27:23.974Z,100807.19
2023-04-15T10:29:54.505Z,100803.13
2023-04-15T10:32:22.130Z,100804.53
2023-04-15T10:34:51.408Z,100817.50
2023-04-15T10:37:23.588Z,100814.38
2023-04-15T10:39:52.253Z,100795.91
2023-04-15T10:42:19.743Z,100804.41
2023-04-15T10:44:51.891Z,100812.75
2023-04-15T10:47:21.189Z,100807.03
2023-04-15T10:50:05.600Z,100818.78
2023-04-15T10:52:32.116Z,100825.66
2023-04-15T10:55:10.748Z,100818.28
2023-04-15T10:57:41.371Z,100824.84
2023-04-15T11:00:14.933Z,100829.25
2023-04-15T11:03:10.648Z,100839.06
2023-04-15T11:05:43.293Z,100828.91
2023-04-15T11:08:11.536Z,100817.19
2023-04-15T11:10:37.963Z,100835.47
2023-04-15T11:13:15.588Z,100824.88
2023-04-15T11:15:47.231Z,100830.94
2023-04-15T11:18:28.477Z,100831.69
2023-04-15T11:21:07.094Z,100843.94
2023-04-15T11:23:47.327Z,100823.13
2023-04-15T11:26:14.030Z,100843.53
2023-04-15T11:28:48.078Z,100834.56
2023-04-15T11:31:19.916Z,100838.28
2023-04-15T11:34:02.197Z,100843.72
2023-04-15T11:36:30.197Z,100843.41
2023-04-15T11:38:59.212Z,100858.69
2023-04-15T11:41:25.958Z,100843.00
2023-04-15T11:43:52.773Z,100864.91
2023-04-15T11:46:32.036Z,100855.94
2023-04-15T11:49:00.253Z,100880.50
2023-04-15T11:54:33.433Z,100882.50
2023-04-15T11:57:02.488Z,100817.97
2023-04-15T11:59:45.318Z,100855.56
2023-04-15T12:02:53.192Z,100882.38
2023-04-15T12:05:37.991Z,100823.34
2023-04-15T12:08:04.639Z,100863.75
2023-04-15T12:10:34.878Z,100873.22
2023-04-15T12:13:03.621Z,100884.81
2023-04-15T12:15:33.325Z,100865.84
2023-04-15T12:18:00.056Z,100855.56
2023-04-15T12:20:28.343Z,100828.91
2023-04-15T12:23:05.844Z,100873.22
2023-04-15T12:25:35.704Z,100894.78
2023-04-15T12:28:02.181Z,100858.34
2023-04-15T12:30:49.843Z,100890.53
2023-04-15T12:33:16.308Z,100897.09
2023-04-15T12:35:42.847Z,100896.44
2023-04-15T12:40:51.230Z,100908.38
2023-04-15T12:48:41.424Z,100920.13
2023-04-15T12:51:08.071Z,100924.41
2023-04-15T12:53:34.563Z,100923.09
2023-04-15T12:56:01.535Z,100913.94
2023-04-15T12:58:28.436Z,100923.91
2023-04-15T13:00:54.867Z,100929.78
2023-04-15T13:03:21.504Z,100942.06
2023-04-15T13:05:48.044Z,100942.69
2023-04-15T13:08:14.577Z,100937.47
2023-04-15T13:10:42.372Z,100946.75
2023-04-15T13:13:09.045Z,100927.75
2023-04-15T13:15:35.515Z,100943.63
2023-04-15T13:18:02.123Z,100951.63
2023-04-15T13:20:28.746Z,100952.25
2023-04-15T13:22:55.235Z,100959.41
2023-04-15T13:25:21.811Z,100949.28
2023-04-15T13:27:48.232Z,100954.97
2023-04-15T13:30:14.781Z,100936.97
2023-04-15T13:32:41.267Z,100957.59
2023-04-15T13:35:08.142Z,100955.28
2023-04-15T13:37:34.732Z,100957.75
2023-04-15T13:40:01.698Z,100950.88
2023-04-15T13:42:28.143Z,100948.72
2023-04-15T13:44:54.678Z,100955.75
2023-04-15T13:47:21.376Z,100962.13
2023-04-15T13:49:47.979Z,100961.97
2023-04-15T13:52:14.696Z,100958.34
2023-04-15T13:54:41.104Z,100959.31
2023-04-15T13:57:07.835Z,100961.28
2023-04-15T13:59:37.371Z,100972.19
2023-04-15T14:02:04.212Z,100968.59
2023-04-15T14:04:32.297Z,100970.06
2023-04-15T14:06:59.011Z,100983.63
2023-04-15T14:09:26.516Z,100988.34
2023-04-15T14:11:54.414Z,100981.56
2023-04-15T14:14:22.460Z,100998.09
2023-04-15T14:16:49.011Z,100993.34
2023-04-15T14:19:15.475Z,101001.66
2023-04-15T14:21:42.065Z,100997.34
2023-04-15T14:24:08.803Z,101007.97
2023-04-15T14:26:35.433Z,101006.91
2023-04-15T14:29:02.133Z,101015.94
2023-04-15T14:31:28.723Z,101019.34
2023-04-15T14:33:55.264Z,101007.91
2023-04-15T14:36:21.800Z,101030.94
2023-04-15T14:38:48.768Z,101020.28
2023-04-15T14:41:16.245Z,101025.66
2023-04-15T14:43:42.817Z,101023.03
2023-04-15T14:46:10.768Z,101025.41
2023-04-15T14:48:37.598Z,101039.94
2023-04-15T14:51:04.242Z,101029.06
2023-04-15T14:53:30.650Z,101039.22
2023-04-15T14:55:57.261Z,101058.22
2023-04-15T14:58:23.703Z,101047.72
2023-04-15T15:00:50.284Z,101045.84
2023-04-15T15:03:17.022Z,101054.72
2023-04-15T15:05:46.311Z,101058.44
2023-04-15T15:08:13.795Z,101061.75
2023-04-15T15:10:49.247Z,101063.66
2023-04-15T15:13:16.713Z,101085.25
2023-04-15T15:15:43.210Z,101075.91
2023-04-15T15:18:10.707Z,101082.63
2023-04-15T15:20:37.263Z,101073.75
2023-04-15T15:23:03.689Z,101072.31
2023-04-15T15:25:30.350Z,101077.78
2023-04-15T15:27:57.720Z,101088.44
2023-04-15T15:30:24.382Z,101088.28
2023-04-15T15:32:51.398Z,101087.94
2023-04-15T15:35:17.989Z,101073.66
2023-04-15T15:37:45.740Z,101090.91
2023-04-15T15:40:12.619Z,101095.31
2023-04-15T15:42:39.114Z,101091.41
2023-04-15T15:45:08.251Z,101100.22
2023-04-15T15:47:34.864Z,101105.66
2023-04-15T15:50:06.052Z,101115.94
2023-04-15T15:52:32.759Z,101117.75
2023-04-15T15:54:59.316Z,101115.56
2023-04-15T15:57:26.056Z,101106.84
2023-04-15T16:00:02.014Z,101131.41
2023-04-15T16:03:04.381Z,101121.53
2023-04-15T16:05:24.339Z,101138.09
2023-04-15T16:07:50.910Z,101137.72
2023-04-15T16:10:17.406Z,101141.50
2023-04-15T16:12:44.714Z,101131.59
2023-04-15T16:15:12.362Z,101152.78
2023-04-15T16:17:38.920Z,101133.22
2023-04-15T16:20:06.399Z,101138.88
2023-04-15T16:22:34.713Z,101156.53
2023-04-15T16:25:02.083Z,101156.13
2023-04-15T16:27:28.554Z,101146.56
2023-04-15T16:29:55.008Z,101164.63
2023-04-15T16:32:21.761Z,101168.50
2023-04-15T16:34:48.447Z,101168.22
2023-04-15T16:37:14.993Z,101172.47
2023-04-15T16:39:41.601Z,101172.19
2023-04-15T16:42:08.918Z,101163.00
2023-04-15T16:44:35.386Z,101172.13
2023-04-15T16:47:03.038Z,101177.56
2023-04-15T16:49:30.027Z,101173.47
2023-04-15T16:51:57.368Z,101175.25
2023-04-15T16:54:23.882Z,101178.16
2023-04-15T16:56:50.411Z,101189.28
2023-04-15T16:59:17.046Z,101187.16
2023-04-15T17:01:43.677Z,101194.19
2023-04-15T17:04:10.424Z,101175.16
2023-04-15T17:06:36.922Z,101198.31
2023-04-15T17:09:03.641Z,101185.31
2023-04-15T17:11:31.228Z,101191.47
2023-04-15T17:13:57.747Z,101206.03
2023-04-15T17:16:25.320Z,101206.19
2023-04-15T17:18:51.929Z,101210.16
2023-04-15T17:21:18.533Z,101212.78
2023-04-15T17:23:45.116Z,101216.63
2023-04-15T17:26:11.536Z,101226.75
2023-04-15T17:28:38.004Z,101222.69
2023-04-15T17:31:05.056Z,101201.25
2023-04-15T17:33:59.168Z,101217.59
2023-04-15T17:36:18.220Z,101221.53
2023-04-15T17:38:45.510Z,101231.59
2023-04-15T17:41:12.132Z,101201.88
2023-04-15T17:43:38.595Z,101218.72
2023-04-15T17:46:07.154Z,101218.34
2023-04-15T17:48:34.406Z,101236.81
2023-04-15T17:51:00.858Z,101228.63
2023-04-15T17:53:27.317Z,101247.81
2023-04-15T17:55:53.813Z,101229.50
2023-04-15T17:58:20.410Z,101246.88
2023-04-15T18:00:47.497Z,101245.00
2023-04-15T18:03:14.329Z,101246.94
2023-04-15T18:05:42.650Z,101262.16
2023-04-15T18:08:09.496Z,101217.75
2023-04-15T18:10:36.781Z,101277.22
2023-04-15T18:13:03.450Z,101284.25
2023-04-15T18:15:31.224Z,101277.53
2023-04-15T18:18:00.542Z,101279.72
2023-04-15T18:20:27.862Z,101284.94
2023-04-15T18:22:54.444Z,101296.38
2023-04-15T18:25:20.988Z,101287.06
2023-04-15T18:27:48.565Z,101282.22
2023-04-15T18:30:15.012Z,101296.22
2023-04-15T18:32:41.549Z,101289.75
2023-04-15T18:35:08.486Z,101294.19
2023-04-15T18:37:35.396Z,101291.03
2023-04-15T18:40:02.091Z,101297.50
2023-04-15T18:42:29.034Z,101314.25
2023-04-15T18:44:55.532Z,101311.47
2023-04-15T18:47:22.121Z,101317.50
2023-04-15T18:49:48.670Z,101323.44
2023-04-15T18:52:15.099Z,101321.25
2023-04-15T18:54:41.537Z,101334.97
2023-04-15T18:57:08.014Z,101337.84
2023-04-15T18:59:34.729Z,101331.38
2023-04-15T19:02:03.521Z,101315.47
2023-04-15T19:04:30.065Z,101328.81
2023-04-15T19:06:56.983Z,101331.41
2023-04-15T19:09:23.694Z,101330.88
2023-04-15T19:11:52.232Z,101343.59
2023-04-15T19:14:18.661Z,101350.06
2023-04-15T19:16:45.147Z,101346.22
2023-04-15T19:19:14.524Z,101337.72
2023-04-15T19:21:41.555Z,101351.44
2023-04-15T19:24:08.609Z,101347.63
2023-04-15T19:26:36.957Z,101332.81
2023-04-15T19:29:05.056Z,101356.81
2023-04-15T19:31:31.817Z,101363.00
2023-04-15T19:33:58.273Z,101364.91
2023-04-15T19:36:25.334Z,101353.09
2023-04-15T19:38:51.848Z,101340.47
2023-04-15T19:41:18.262Z,101371.50
2023-04-15T19:43:44.753Z,101367.13
2023-04-15T19:46:13.191Z,101375.91
2023-04-15T19:48:40.351Z,101383.72
2023-04-15T19:51:06.860Z,101386.59
2023-04-15T19:53:33.534Z,101391.16
2023-04-15T19:56:00.358Z,101378.41
2023-04-15T19:58:26.831Z,101390.31
2023-04-15T20:00:53.513Z,101394.84
2023-04-15T20:03:20.519Z,101388.81
2023-04-15T20:05:47.272Z,101384.72
2023-04-15T20:08:13.704Z,101390.19
2023-04-15T20:10:40.176Z,101380.31
2023-04-15T20:13:06.644Z,101394.84
2023-04-15T20:15:33.141Z,101391.03
2023-04-15T20:17:59.610Z,101393.09
2023-04-15T20:20:26.325Z,101400.91
2023-04-15T20:22:53.110Z,101398.31
2023-04-15T20:25:19.729Z,101413.00
2023-04-15T20:27:47.592Z,101406.41
2023-04-15T20:30:14.151Z,101414.47
2023-04-15T20:32:40.762Z,101407.63
2023-04-15T20:35:07.687Z,101412.16
2023-04-15T20:37:37.698Z,101429.63
2023-04-15T20:40:07.445Z,101398.84
2023-04-15T20:42:34.496Z,101394.31
2023-04-15T20:45:01.964Z,101410.66
2023-04-15T20:47:28.558Z,101424.50
2023-04-15T20:49:55.427Z,101409.03
2023-04-15T20:52:21.889Z,101423.97
2023-04-15T20:54:48.472Z,101425.34
2023-04-15T20:57:14.973Z,101422.59
2023-04-15T20:59:41.358Z,101433.88
2023-04-15T21:02:07.978Z,101422.47
2023-04-15T21:04:34.513Z,101430.41
2023-04-15T21:07:00.950Z,101436.34
2023-04-15T21:09:27.465Z,101419.47
2023-04-15T21:12:01.159Z,101405.88
2023-04-15T21:14:28.631Z,101383.75
2023-04-15T21:16:56.586Z,101419.88
2023-04-15T21:19:23.247Z,101430.56
2023-04-15T21:21:49.701Z,101414.53
2023-04-15T21:24:16.170Z,101419.88
2023-04-15T21:26:42.611Z,101435.53
2023-04-15T21:29:11.455Z,101431.66
2023-04-15T21:31:38.523Z,101422.75
2023-04-15T21:34:05.405Z,101438.69
2023-04-15T21:36:32.174Z,101440.06
2023-04-15T21:38:58.786Z,101444.31
2023-04-15T21:41:25.794Z,101449.38
2023-04-15T21:43:52.783Z,101437.56
2023-04-15T21:46:22.088Z,101459.56
2023-04-15T21:48:50.506Z,101459.66
2023-04-15T21:51:17.012Z,101469.84
2023-04-15T21:53:43.447Z,101471.38
2023-04-15T21:56:10.059Z,101452.81
2023-04-15T21:58:36.785Z,101474.78
2023-04-15T22:01:04.667Z,101452.41
2023-04-15T22:03:34.977Z,101468.88
2023-04-15T22:06:03.235Z,101463.09
2023-04-15T22:08:36.076Z,101469.84
2023-04-15T22:11:08.732Z,101463.25
2023-04-15T22:13:35.472Z,101475.06
2023-04-15T22:16:02.452Z,101476.16
2023-04-15T22:18:28.897Z,101472.59
2023-04-15T22:20:56.212Z,101463.25
2023-04-15T22:23:22.710Z,101478.34
2023-04-15T22:25:49.139Z,101480.28
2023-04-15T22:28:15.541Z,101475.19
2023-04-15T22:30:42.322Z,101485.09
2023-04-15T22:33:09.906Z,101471.06
2023-04-15T22:35:37.421Z,101484.25
2023-04-15T22:38:04.947Z,101480.84
2023-04-15T22:40:31.559Z,101486.88
2023-04-15T22:42:58.081Z,101474.34
2023-04-15T22:45:24.531Z,101490.28
2023-04-15T22:47:51.076Z,101492.09
2023-04-15T22:50:17.760Z,101485.09
2023-04-15T22:52:46.175Z,101508.00
2023-04-15T22:55:13.075Z,101497.72
2023-04-15T22:57:39.738Z,101497.72
2023-04-15T23:00:07.365Z,101506.50
2023-04-15T23:02:34.782Z,101514.47
2023-04-15T23:05:01.784Z,101512.53
2023-04-15T23:07:39.281Z,101506.06
2023-04-15T23:10:06.491Z,101510.22
2023-04-15T23:12:32.909Z,101513.22
2023-04-15T23:14:59.310Z,101496.19
2023-04-15T23:17:26.707Z,101521.19
2023-04-15T23:19:53.205Z,101518.59
2023-04-15T23:22:19.685Z,101502.50
2023-04-15T23:24:46.241Z,101523.66
2023-04-15T23:27:12.711Z,101525.31
2023-04-15T23:29:39.163Z,101519.00
2023-04-15T23:32:06.127Z,101525.31
2023-04-15T23:34:32.630Z,101521.06
2023-04-15T23:36:59.053Z,101509.91
2023-04-15T23:39:25.654Z,101521.19
2023-04-15T23:41:52.561Z,101512.66
2023-04-15T23:44:19.048Z,101512.56
2023-04-15T23:46:45.774Z,101528.47
2023-04-15T23:49:12.501Z,101527.25
2023-04-15T23:51:39.207Z,101526.41
2023-04-15T23:54:05.769Z,101500.19
2023-04-15T23:56:32.248Z,101516.81
2023-04-15T23:58:58.659Z,101521.19
